sensor_id;sensor_type;location;lat;lon;timestamp;pressure;altitude;pressure_sealevel;temperature;humidity
15263;BME280;7733;51.554;13.590;2024-02-28T00:01:26;100676.88;;;8.45;99.73
15263;BME280;7733;51.554;13.590;2024-02-28T00:03:52;100678.59;;;8.21;100.00
15263;BME280;7733;51.554;13.590;2024-02-28T00:06:18;100682.06;;;8.30;100.00
15263;BME280;7733;51.554;13.590;2024-02-28T00:08:45;100673.34;;;8.40;100.00
15263;BME280;7733;51.554;13.590;2024-02-28T00:11:11;100683.81;;;8.21;100.00
15263;BME280;7733;51.554;13.590;2024-02-28T00:13:37;100683.78;;;8.15;100.00
15263;BME280;7733;51.554;13.590;2024-02-28T00:16:03;100681.19;;;8.06;100.00
15263;BME280;7733;51.554;13.590;2024-02-28T00:18:29;100675.94;;;7.85;100.00
15263;BME280;7733;51.554;13.590;2024-02-28T00:20:56;100688.13;;;7.84;100.00
15263;BME280;7733;51.554;13.590;2024-02-28T00:23:22;100689.81;;;7.61;100.00
15263;BME280;7733;51.554;13.590;2024-02-28T00:25:48;100684.66;;;8.05;100.00
15263;BME280;7733;51.554;13.590;2024-02-28T00:28:13;100679.41;;;7.87;100.00
15263;BME280;7733;51.554;13.590;2024-02-28T00:30:39;100685.53;;;8.16;100.00
15263;BME280;7733;51.554;13.590;2024-02-28T00:33:06;100687.28;;;8.17;100.00
15263;BME280;7733;51.554;13.590;2024-02-28T00:35:33;100690.81;;;8.47;99.26
15263;BME280;7733;51.554;13.590;2024-02-28T00:38:00;100695.09;;;8.17;100.00
15263;BME280;7733;51.554;13.590;2024-02-28T00:40:25;100691.66;;;8.28;99.37
15263;BME280;7733;51.554;13.590;2024-02-28T00:42:51;100693.34;;;8.00;100.00
15263;BME280;7733;51.554;13.590;2024-02-28T00:45:17;100697.69;;;7.96;100.00
15263;BME280;7733;51.554;13.590;2024-02-28T00:47:43;100702.91;;;7.99;100.00
15263;BME280;7733;51.554;13.590;2024-02-28T00:50:09;100699.41;;;7.79;100.00
15263;BME280;7733;51.554;13.590;2024-02-28T00:52:35;100690.75;;;8.10;100.00
15263;BME280;7733;51.554;13.590;2024-02-28T00:55:01;100685.56;;;8.22;99.90
15263;BME280;7733;51.554;13.590;2024-02-28T00:57:26;100684.66;;;8.07;100.00
15263;BME280;7733;51.554;13.590;2024-02-28T00:59:52;100683.78;;;8.03;100.00
15263;BME280;7733;51.554;13.590;2024-02-28T01:02:20;100697.69;;;7.81;100.00
15263;BME280;7733;51.554;13.590;2024-02-28T01:04:46;100694.16;;;7.73;100.00
15263;BME280;7733;51.554;13.590;2024-02-28T01:07:12;100689.81;;;7.62;100.00
15263;BME280;7733;51.554;13.590;2024-02-28T01:09:38;100688.94;;;7.67;100.00
15263;BME280;7733;51.554;13.590;2024-02-28T01:12:04;100688.94;;;7.67;100.00
15263;BME280;7733;51.554;13.590;2024-02-28T01:14:30;100695.09;;;7.82;100.00
15263;BME280;7733;51.554;13.590;2024-02-28T01:16:56;100693.31;;;7.77;100.00
15263;BME280;7733;51.554;13.590;2024-02-28T01:19:21;100694.13;;;7.57;100.00
15263;BME280;7733;51.554;13.590;2024-02-28T01:21:47;100698.47;;;7.55;100.00
15263;BME280;7733;51.554;13.590;2024-02-28T01:24:13;100699.34;;;7.60;100.00
15263;BME280;7733;51.554;13.590;2024-02-28T01:26:39;100697.72;;;8.05;100.00
15263;BME280;7733;51.554;13.590;2024-02-28T01:29:05;100689.00;;;7.97;100.00
15263;BME280;7733;51.554;13.590;2024-02-28T01:31:31;100698.59;;;8.18;99.65
15263;BME280;7733;51.554;13.590;2024-02-28T01:33:57;100693.34;;;7.90;100.00
15263;BME280;7733;51.554;13.590;2024-02-28T01:36:23;100684.63;;;7.91;100.00
15263;BME280;7733;51.554;13.590;2024-02-28T01:38:48;100684.63;;;7.99;100.00
15263;BME280;7733;51.554;13.590;2024-02-28T01:41:14;100684.63;;;7.98;100.00
15263;BME280;7733;51.554;13.590;2024-02-28T01:43:41;100680.31;;;8.07;100.00
15263;BME280;7733;51.554;13.590;2024-02-28T01:46:25;100682.91;;;8.00;100.00
15263;BME280;7733;51.554;13.590;2024-02-28T01:48:55;100693.31;;;7.72;100.00
15263;BME280;7733;51.554;13.590;2024-02-28T01:51:25;100685.34;;;7.37;100.00
15263;BME280;7733;51.554;13.590;2024-02-28T01:53:53;100688.91;;;7.54;100.00
15263;BME280;7733;51.554;13.590;2024-02-28T01:56:22;100680.13;;;7.39;100.00
15263;BME280;7733;51.554;13.590;2024-02-28T01:58:49;100683.69;;;7.60;100.00
15263;BME280;7733;51.554;13.590;2024-02-28T02:01:16;100688.88;;;7.45;100.00
15263;BME280;7733;51.554;13.590;2024-02-28T02:03:45;100684.47;;;7.38;100.00
15263;BME280;7733;51.554;13.590;2024-02-28T02:06:11;100683.69;;;7.59;100.00
15263;BME280;7733;51.554;13.590;2024-02-28T02:08:37;100688.09;;;7.75;100.00
15263;BME280;7733;51.554;13.590;2024-02-28T02:11:04;100687.16;;;7.47;100.00
15263;BME280;7733;51.554;13.590;2024-02-28T02:13:31;100683.78;;;7.88;100.00
15263;BME280;7733;51.554;13.590;2024-02-28T02:15:56;100680.25;;;7.80;100.00
15263;BME280;7733;51.554;13.590;2024-02-28T02:18:22;100681.94;;;7.47;100.00
15263;BME280;7733;51.554;13.590;2024-02-28T02:20:54;100690.69;;;7.71;100.00
15263;BME280;7733;51.554;13.590;2024-02-28T02:23:24;100681.91;;;7.41;100.00
15263;BME280;7733;51.554;13.590;2024-02-28T02:25:50;100682.72;;;7.26;100.00
15263;BME280;7733;51.554;13.590;2024-02-28T02:28:15;100693.97;;;7.18;100.00
15263;BME280;7733;51.554;13.590;2024-02-28T02:30:41;100692.22;;;7.20;100.00
15263;BME280;7733;51.554;13.590;2024-02-28T02:33:08;100694.03;;;7.35;100.00
15263;BME280;7733;51.554;13.590;2024-02-28T02:35:34;100701.75;;;7.07;100.00
15263;BME280;7733;51.554;13.590;2024-02-28T02:38:00;100681.78;;;7.17;100.00
15263;BME280;7733;51.554;13.590;2024-02-28T02:40:26;100699.16;;;7.12;100.00
15263;BME280;7733;51.554;13.590;2024-02-28T02:42:52;100693.91;;;7.04;100.00
15263;BME280;7733;51.554;13.590;2024-02-28T02:45:17;100691.31;;;7.07;100.00
15263;BME280;7733;51.554;13.590;2024-02-28T02:47:43;100687.00;;;7.18;100.00
15263;BME280;7733;51.554;13.590;2024-02-28T02:50:12;100694.97;;;7.44;100.00
15263;BME280;7733;51.554;13.590;2024-02-28T02:52:38;100690.63;;;7.43;100.00
15263;BME280;7733;51.554;13.590;2024-02-28T02:55:04;100695.88;;;7.58;100.00
15263;BME280;7733;51.554;13.590;2024-02-28T02:57:31;100695.91;;;7.77;100.00
15263;BME280;7733;51.554;13.590;2024-02-28T02:59:57;100694.09;;;7.51;100.00
15263;BME280;7733;51.554;13.590;2024-02-28T03:02:23;100699.31;;;7.47;100.00
15263;BME280;7733;51.554;13.590;2024-02-28T03:04:49;100701.88;;;7.36;100.00
15263;BME280;7733;51.554;13.590;2024-02-28T03:07:14;100700.97;;;7.22;100.00
15263;BME280;7733;51.554;13.590;2024-02-28T03:09:40;100705.41;;;7.41;100.00
15263;BME280;7733;51.554;13.590;2024-02-28T03:12:07;100699.25;;;7.33;100.00
15263;BME280;7733;51.554;13.590;2024-02-28T03:14:35;100705.25;;;7.11;100.00
15263;BME280;7733;51.554;13.590;2024-02-28T03:17:01;100708.81;;;7.26;100.00
15263;BME280;7733;51.554;13.590;2024-02-28T03:19:27;100703.53;;;7.14;100.00
15263;BME280;7733;51.554;13.590;2024-02-28T03:21:53;100699.94;;;6.95;100.00
15263;BME280;7733;51.554;13.590;2024-02-28T03:24:19;100702.53;;;6.95;100.00
15263;BME280;7733;51.554;13.590;2024-02-28T03:26:44;100700.03;;;7.12;100.00
15263;BME280;7733;51.554;13.590;2024-02-28T03:29:10;100701.00;;;7.31;100.00
15263;BME280;7733;51.554;13.590;2024-02-28T03:31:36;100704.34;;;7.03;100.00
15263;BME280;7733;51.554;13.590;2024-02-28T03:34:01;100713.84;;;6.97;100.00
15263;BME280;7733;51.554;13.590;2024-02-28T03:36:28;100712.28;;;7.22;100.00
15263;BME280;7733;51.554;13.590;2024-02-28T03:38:54;100716.75;;;7.54;100.00
15263;BME280;7733;51.554;13.590;2024-02-28T03:41:20;100720.22;;;7.48;100.00
15263;BME280;7733;51.554;13.590;2024-02-28T03:43:46;100714.19;;;7.74;98.60
15263;BME280;7733;51.554;13.590;2024-02-28T03:46:11;100714.13;;;7.48;99.15
15263;BME280;7733;51.554;13.590;2024-02-28T03:48:37;100716.63;;;7.28;100.00
15263;BME280;7733;51.554;13.590;2024-02-28T03:51:03;100727.00;;;7.16;100.00
15263;BME280;7733;51.554;13.590;2024-02-28T03:53:29;100733.09;;;7.15;100.00
15263;BME280;7733;51.554;13.590;2024-02-28T03:55:55;100737.44;;;7.19;100.00
15263;BME280;7733;51.554;13.590;2024-02-28T03:58:21;100733.94;;;7.09;100.00
15263;BME280;7733;51.554;13.590;2024-02-28T04:00:47;100739.16;;;7.11;100.00
15263;BME280;7733;51.554;13.590;2024-02-28T04:03:14;100747.13;;;7.40;100.00
15263;BME280;7733;51.554;13.590;2024-02-28T04:05:40;100746.25;;;7.36;100.00
15263;BME280;7733;51.554;13.590;2024-02-28T04:08:07;100740.16;;;7.40;100.00
15263;BME280;7733;51.554;13.590;2024-02-28T04:10:32;100750.47;;;7.16;100.00
15263;BME280;7733;51.554;13.590;2024-02-28T04:12:58;100758.28;;;7.10;100.00
15263;BME280;7733;51.554;13.590;2024-02-28T04:15:24;100771.16;;;6.84;100.00
15263;BME280;7733;51.554;13.590;2024-02-28T04:17:52;100780.00;;;7.07;100.00
15263;BME280;7733;51.554;13.590;2024-02-28T04:20:17;100780.84;;;7.05;100.00
15263;BME280;7733;51.554;13.590;2024-02-28T04:22:43;100792.19;;;7.13;100.00
15263;BME280;7733;51.554;13.590;2024-02-28T04:25:10;100783.59;;;7.27;100.00
15263;BME280;7733;51.554;13.590;2024-02-28T04:27:36;100793.94;;;7.15;100.00
15263;BME280;7733;51.554;13.590;2024-02-28T04:30:03;100798.25;;;7.04;100.00
15263;BME280;7733;51.554;13.590;2024-02-28T04:32:29;100795.53;;;6.90;100.00
15263;BME280;7733;51.554;13.590;2024-02-28T04:34:55;100801.50;;;6.80;100.00
15263;BME280;7733;51.554;13.590;2024-02-28T04:37:21;100805.84;;;6.80;100.00
15263;BME280;7733;51.554;13.590;2024-02-28T04:39:47;100803.34;;;6.89;100.00
